Salem, OR (97303)

9:56 AM PDT on August 27, 2016 (GMT -0700)
Country Glen | | Change Station

Elev 134 ft 45.02 °N, 123.02 °W | Updated 43 seconds ago

Clear
Clear
68.3 °F
Feels Like 68.3 °F
N
4.1
Wind Variable Wind from WSW
Gusts 10.0 mph

Today
High -- | Low -- °F
--% Chance of Precip.
Yesterday
High -- | Low -- °F
Precip. -- in
Pressure 29.95 in
Visibility 10.0 miles
Clouds Clear
Dew Point 56 °F
Humidity 65%
Rainfall 0.00 in
Snow Depth Not available.
6:28 AM 7:57 PM
Waning Crescent, 23% visible
METAR KSLE 271556Z 21005KT 10SM CLR 18/12 A2995 RMK AO2 SLP141 T01780117
Pressure 29.95 in
Visibility 10.0 miles
Clouds Clear
Dew Point 56 °F
Humidity 65%
Rainfall 0.00 in
Snow Depth Not available.
6:28 AM 7:57 PM
Waning Crescent, 23% visible
METAR KSLE 271556Z 21005KT 10SM CLR 18/12 A2995 RMK AO2 SLP141 T01780117

10-Day Weather Forecast

Almanac

Astronomy

Aug. 27, 2016 Rise Set
Actual Time
Civil Twilight
Nautical Twilight
Astronomical Twilight
Moon
Length of Visible Light
Length of Day
Tomorrow will be .
, % of the Moon is Illuminated

Today's Extremes

State Highs State Lows

Community

WunderPhotos

Upload Photos

1,935,377 photos uploaded!

WunderBlog® & News

Nearby

Air Quality

  Air Quality AQ Index Pollutant
Not available.

Snow Depth

Station Depth Elevation

Earthquake Activity

City Distance Mag. Time & Date
Minimum magnitude displayed is 2.5.

Coastal Water Temperatures

Place Temperature

Stations

Nearby Weather Stations

Station Location Temp. Windchill Dew Point Humidity Wind Precip. Elev Updated Type
                   

Watches & Warnings

There are currently no watches in effect.